sensor_id;sensor_type;location;lat;lon;timestamp;P1;durP1;ratioP1;P2;durP2;ratioP2
57217;SDS011;43078;52.972;6.482;2023-05-10T00:00:25;9.20;;;6.55;;
57217;SDS011;43078;52.972;6.482;2023-05-10T00:03:38;12.10;;;6.60;;
57217;SDS011;43078;52.972;6.482;2023-05-10T00:06:25;7.65;;;6.63;;
57217;SDS011;43078;52.972;6.482;2023-05-10T00:27:24;7.18;;;6.00;;
57217;SDS011;43078;52.972;6.482;2023-05-10T00:30:28;6.78;;;5.80;;
57217;SDS011;43078;52.972;6.482;2023-05-10T00:35:52;7.85;;;5.95;;
57217;SDS011;43078;52.972;6.482;2023-05-10T00:38:25;8.15;;;5.65;;
57217;SDS011;43078;52.972;6.482;2023-05-10T00:45:03;7.07;;;5.93;;
57217;SDS011;43078;52.972;6.482;2023-05-10T00:50:58;7.97;;;6.10;;
57217;SDS011;43078;52.972;6.482;2023-05-10T00:54:14;7.07;;;5.85;;
57217;SDS011;43078;52.972;6.482;2023-05-10T00:57:36;6.45;;;5.55;;
57217;SDS011;43078;52.972;6.482;2023-05-10T01:00:23;8.50;;;6.53;;
57217;SDS011;43078;52.972;6.482;2023-05-10T01:34:13;13.85;;;11.60;;
57217;SDS011;43078;52.972;6.482;2023-05-10T01:47:40;11.65;;;9.90;;
57217;SDS011;43078;52.972;6.482;2023-05-10T01:50:38;11.00;;;8.82;;
57217;SDS011;43078;52.972;6.482;2023-05-10T01:53:31;11.07;;;8.95;;
57217;SDS011;43078;52.972;6.482;2023-05-10T01:56:19;11.07;;;8.93;;
57217;SDS011;43078;52.972;6.482;2023-05-10T01:59:21;11.57;;;9.18;;
57217;SDS011;43078;52.972;6.482;2023-05-10T02:01:50;11.77;;;9.10;;
57217;SDS011;43078;52.972;6.482;2023-05-10T02:04:20;13.25;;;10.07;;
57217;SDS011;43078;52.972;6.482;2023-05-10T02:06:56;12.90;;;9.55;;
57217;SDS011;43078;52.972;6.482;2023-05-10T02:09:23;10.40;;;9.15;;
57217;SDS011;43078;52.972;6.482;2023-05-10T02:11:56;11.63;;;9.13;;
57217;SDS011;43078;52.972;6.482;2023-05-10T02:14:57;10.50;;;8.45;;
57217;SDS011;43078;52.972;6.482;2023-05-10T02:18:06;10.88;;;9.52;;
57217;SDS011;43078;52.972;6.482;2023-05-10T02:27:13;10.15;;;8.02;;
57217;SDS011;43078;52.972;6.482;2023-05-10T02:33:39;10.15;;;8.30;;
57217;SDS011;43078;52.972;6.482;2023-05-10T02:37:10;10.50;;;8.27;;
57217;SDS011;43078;52.972;6.482;2023-05-10T02:40:13;10.00;;;8.02;;
57217;SDS011;43078;52.972;6.482;2023-05-10T02:43:01;10.27;;;8.43;;
57217;SDS011;43078;52.972;6.482;2023-05-10T02:45:32;10.45;;;7.93;;
57217;SDS011;43078;52.972;6.482;2023-05-10T02:48:20;9.20;;;7.70;;
57217;SDS011;43078;52.972;6.482;2023-05-10T02:50:46;11.20;;;8.32;;
57217;SDS011;43078;52.972;6.482;2023-05-10T02:53:18;10.30;;;7.95;;
57217;SDS011;43078;52.972;6.482;2023-05-10T02:55:59;10.50;;;8.57;;
57217;SDS011;43078;52.972;6.482;2023-05-10T02:58:29;9.50;;;7.88;;
57217;SDS011;43078;52.972;6.482;2023-05-10T03:00:55;11.02;;;8.07;;
57217;SDS011;43078;52.972;6.482;2023-05-10T03:03:20;11.07;;;8.52;;
57217;SDS011;43078;52.972;6.482;2023-05-10T03:05:58;9.75;;;7.15;;
57217;SDS011;43078;52.972;6.482;2023-05-10T03:08:23;9.93;;;8.52;;
57217;SDS011;43078;52.972;6.482;2023-05-10T03:10:55;10.05;;;7.88;;
57217;SDS011;43078;52.972;6.482;2023-05-10T03:13:48;9.30;;;7.45;;
57217;SDS011;43078;52.972;6.482;2023-05-10T03:16:27;9.90;;;7.32;;
57217;SDS011;43078;52.972;6.482;2023-05-10T03:19:22;10.48;;;7.72;;
57217;SDS011;43078;52.972;6.482;2023-05-10T03:21:52;10.10;;;7.72;;
57217;SDS011;43078;52.972;6.482;2023-05-10T03:24:21;10.15;;;7.40;;
57217;SDS011;43078;52.972;6.482;2023-05-10T03:26:50;10.65;;;7.57;;
57217;SDS011;43078;52.972;6.482;2023-05-10T03:29:20;10.57;;;7.38;;
57217;SDS011;43078;52.972;6.482;2023-05-10T03:31:48;7.95;;;6.68;;
57217;SDS011;43078;52.972;6.482;2023-05-10T03:34:13;9.27;;;6.65;;
57217;SDS011;43078;52.972;6.482;2023-05-10T03:36:39;10.15;;;6.38;;
57217;SDS011;43078;52.972;6.482;2023-05-10T03:39:05;8.57;;;6.15;;
57217;SDS011;43078;52.972;6.482;2023-05-10T03:41:30;8.68;;;6.93;;
57217;SDS011;43078;52.972;6.482;2023-05-10T03:43:56;10.65;;;7.82;;
57217;SDS011;43078;52.972;6.482;2023-05-10T03:46:22;7.32;;;5.72;;
57217;SDS011;43078;52.972;6.482;2023-05-10T03:48:47;7.50;;;5.82;;
57217;SDS011;43078;52.972;6.482;2023-05-10T03:51:13;9.02;;;5.78;;
57217;SDS011;43078;52.972;6.482;2023-05-10T03:53:38;7.95;;;5.75;;
57217;SDS011;43078;52.972;6.482;2023-05-10T03:56:04;9.45;;;6.97;;
57217;SDS011;43078;52.972;6.482;2023-05-10T03:58:29;9.40;;;5.60;;
57217;SDS011;43078;52.972;6.482;2023-05-10T04:00:55;7.93;;;5.55;;
57217;SDS011;43078;52.972;6.482;2023-05-10T04:03:21;7.13;;;5.05;;
57217;SDS011;43078;52.972;6.482;2023-05-10T04:05:46;7.65;;;5.60;;
57217;SDS011;43078;52.972;6.482;2023-05-10T04:08:12;7.93;;;5.35;;
57217;SDS011;43078;52.972;6.482;2023-05-10T04:10:38;8.50;;;5.45;;
57217;SDS011;43078;52.972;6.482;2023-05-10T04:13:03;6.90;;;5.32;;
57217;SDS011;43078;52.972;6.482;2023-05-10T04:15:29;8.63;;;5.50;;
57217;SDS011;43078;52.972;6.482;2023-05-10T04:17:54;10.93;;;6.25;;
57217;SDS011;43078;52.972;6.482;2023-05-10T04:20:20;8.32;;;5.53;;
57217;SDS011;43078;52.972;6.482;2023-05-10T04:22:46;7.03;;;5.43;;
57217;SDS011;43078;52.972;6.482;2023-05-10T04:25:11;7.13;;;5.32;;
57217;SDS011;43078;52.972;6.482;2023-05-10T04:27:37;8.95;;;5.47;;
57217;SDS011;43078;52.972;6.482;2023-05-10T04:30:03;6.68;;;5.25;;
57217;SDS011;43078;52.972;6.482;2023-05-10T04:32:29;8.20;;;6.00;;
57217;SDS011;43078;52.972;6.482;2023-05-10T04:34:54;7.82;;;5.57;;
57217;SDS011;43078;52.972;6.482;2023-05-10T04:37:20;6.82;;;5.45;;
57217;SDS011;43078;52.972;6.482;2023-05-10T04:39:47;8.45;;;5.00;;
57217;SDS011;43078;52.972;6.482;2023-05-10T04:42:13;6.85;;;5.07;;
57217;SDS011;43078;52.972;6.482;2023-05-10T04:44:40;6.20;;;4.63;;
57217;SDS011;43078;52.972;6.482;2023-05-10T04:47:05;7.88;;;4.97;;
57217;SDS011;43078;52.972;6.482;2023-05-10T04:49:37;5.95;;;4.60;;
57217;SDS011;43078;52.972;6.482;2023-05-10T04:52:03;5.93;;;4.60;;
57217;SDS011;43078;52.972;6.482;2023-05-10T04:54:29;7.35;;;4.57;;
57217;SDS011;43078;52.972;6.482;2023-05-10T04:56:54;7.28;;;4.57;;
57217;SDS011;43078;52.972;6.482;2023-05-10T04:59:20;8.23;;;4.80;;
57217;SDS011;43078;52.972;6.482;2023-05-10T05:01:46;6.10;;;4.22;;
57217;SDS011;43078;52.972;6.482;2023-05-10T05:04:11;7.07;;;4.30;;
57217;SDS011;43078;52.972;6.482;2023-05-10T05:06:37;5.68;;;4.57;;
57217;SDS011;43078;52.972;6.482;2023-05-10T05:09:02;6.30;;;4.60;;
57217;SDS011;43078;52.972;6.482;2023-05-10T05:11:29;4.97;;;3.78;;
57217;SDS011;43078;52.972;6.482;2023-05-10T05:13:54;6.78;;;4.20;;
57217;SDS011;43078;52.972;6.482;2023-05-10T05:16:20;5.45;;;3.88;;
57217;SDS011;43078;52.972;6.482;2023-05-10T05:18:49;9.23;;;4.18;;
57217;SDS011;43078;52.972;6.482;2023-05-10T05:25:23;5.55;;;3.80;;
57217;SDS011;43078;52.972;6.482;2023-05-10T05:31:24;4.47;;;3.58;;
57217;SDS011;43078;52.972;6.482;2023-05-10T05:34:49;5.20;;;3.50;;
57217;SDS011;43078;52.972;6.482;2023-05-10T05:37:46;4.50;;;3.28;;
57217;SDS011;43078;52.972;6.482;2023-05-10T05:40:37;5.55;;;3.90;;
57217;SDS011;43078;52.972;6.482;2023-05-10T05:43:03;4.85;;;3.15;;
57217;SDS011;43078;52.972;6.482;2023-05-10T05:45:29;5.22;;;3.65;;
57217;SDS011;43078;52.972;6.482;2023-05-10T05:47:55;6.18;;;3.70;;
57217;SDS011;43078;52.972;6.482;2023-05-10T05:50:25;6.18;;;3.15;;
57217;SDS011;43078;52.972;6.482;2023-05-10T05:52:54;4.13;;;3.08;;
57217;SDS011;43078;52.972;6.482;2023-05-10T05:55:22;5.50;;;3.05;;
57217;SDS011;43078;52.972;6.482;2023-05-10T05:58:41;4.50;;;2.60;;
57217;SDS011;43078;52.972;6.482;2023-05-10T06:01:10;5.05;;;3.15;;
57217;SDS011;43078;52.972;6.482;2023-05-10T06:04:20;4.50;;;2.95;;
57217;SDS011;43078;52.972;6.482;2023-05-10T06:17:30;4.38;;;3.00;;
57217;SDS011;43078;52.972;6.482;2023-05-10T06:20:02;4.20;;;2.70;;
57217;SDS011;43078;52.972;6.482;2023-05-10T06:22:28;4.60;;;3.17;;
57217;SDS011;43078;52.972;6.482;2023-05-10T06:25:08;4.03;;;2.92;;
57217;SDS011;43078;52.972;6.482;2023-05-10T06:30:49;4.82;;;2.75;;
57217;SDS011;43078;52.972;6.482;2023-05-10T06:33:37;5.40;;;2.80;;
57217;SDS011;43078;52.972;6.482;2023-05-10T06:36:03;3.45;;;2.25;;
57217;SDS011;43078;52.972;6.482;2023-05-10T06:48:51;3.58;;;1.88;;
57217;SDS011;43078;52.972;6.482;2023-05-10T06:51:54;2.65;;;1.67;;
57217;SDS011;43078;52.972;6.482;2023-05-10T06:58:41;2.83;;;1.65;;
57217;SDS011;43078;52.972;6.482;2023-05-10T07:01:35;2.80;;;1.70;;
57217;SDS011;43078;52.972;6.482;2023-05-10T07:07:16;3.05;;;1.58;;
57217;SDS011;43078;52.972;6.482;2023-05-10T07:10:38;3.95;;;1.80;;
57217;SDS011;43078;52.972;6.482;2023-05-10T07:13:32;3.30;;;2.10;;
57217;SDS011;43078;52.972;6.482;2023-05-10T07:15:58;3.85;;;1.90;;
57217;SDS011;43078;52.972;6.482;2023-05-10T07:18:27;3.72;;;2.00;;
57217;SDS011;43078;52.972;6.482;2023-05-10T07:21:01;3.40;;;2.15;;
57217;SDS011;43078;52.972;6.482;2023-05-10T07:24:13;4.20;;;2.20;;
57217;SDS011;43078;52.972;6.482;2023-05-10T07:27:01;4.10;;;2.63;;
57217;SDS011;43078;52.972;6.482;2023-05-10T07:29:27;3.78;;;2.40;;
57217;SDS011;43078;52.972;6.482;2023-05-10T07:35:14;2.92;;;1.88;;
57217;SDS011;43078;52.972;6.482;2023-05-10T07:37:58;3.80;;;2.25;;
57217;SDS011;43078;52.972;6.482;2023-05-10T07:40:29;4.20;;;2.00;;
57217;SDS011;43078;52.972;6.482;2023-05-10T07:42:55;3.50;;;2.20;;
57217;SDS011;43078;52.972;6.482;2023-05-10T07:48:48;3.20;;;2.00;;
57217;SDS011;43078;52.972;6.482;2023-05-10T07:51:54;4.63;;;2.17;;
57217;SDS011;43078;52.972;6.482;2023-05-10T07:54:24;4.57;;;2.50;;
57217;SDS011;43078;52.972;6.482;2023-05-10T07:56:50;3.72;;;2.53;;
57217;SDS011;43078;52.972;6.482;2023-05-10T07:59:36;3.35;;;2.10;;
57217;SDS011;43078;52.972;6.482;2023-05-10T08:02:15;4.70;;;2.42;;
57217;SDS011;43078;52.972;6.482;2023-05-10T08:05:02;3.85;;;2.20;;
57217;SDS011;43078;52.972;6.482;2023-05-10T08:07:30;5.57;;;2.30;;
57217;SDS011;43078;52.972;6.482;2023-05-10T08:09:56;4.82;;;2.42;;
57217;SDS011;43078;52.972;6.482;2023-05-10T08:12:43;5.35;;;2.60;;
57217;SDS011;43078;52.972;6.482;2023-05-10T08:15:14;4.65;;;2.47;;
57217;SDS011;43078;52.972;6.482;2023-05-10T08:17:39;4.28;;;2.05;;
57217;SDS011;43078;52.972;6.482;2023-05-10T08:20:07;3.22;;;2.00;;
57217;SDS011;43078;52.972;6.482;2023-05-10T08:22:58;3.58;;;2.15;;
57217;SDS011;43078;52.972;6.482;2023-05-10T08:25:39;4.15;;;2.40;;
57217;SDS011;43078;52.972;6.482;2023-05-10T08:28:10;3.25;;;2.10;;
57217;SDS011;43078;52.972;6.482;2023-05-10T08:30:36;5.57;;;2.35;;
57217;SDS011;43078;52.972;6.482;2023-05-10T08:33:07;3.55;;;2.22;;
57217;SDS011;43078;52.972;6.482;2023-05-10T08:35:48;4.63;;;2.40;;
57217;SDS011;43078;52.972;6.482;2023-05-10T08:38:14;4.63;;;2.42;;
57217;SDS011;43078;52.972;6.482;2023-05-10T08:40:41;4.97;;;2.50;;
57217;SDS011;43078;52.972;6.482;2023-05-10T08:43:36;4.30;;;2.40;;
57217;SDS011;43078;52.972;6.482;2023-05-10T08:46:28;5.10;;;2.10;;
57217;SDS011;43078;52.972;6.482;2023-05-10T08:49:21;4.67;;;2.60;;
57217;SDS011;43078;52.972;6.482;2023-05-10T08:51:54;3.83;;;1.92;;
57217;SDS011;43078;52.972;6.482;2023-05-10T08:54:23;4.60;;;2.90;;
57217;SDS011;43078;52.972;6.482;2023-05-10T08:56:52;4.63;;;2.45;;
57217;SDS011;43078;52.972;6.482;2023-05-10T09:09:15;5.65;;;3.28;;
57217;SDS011;43078;52.972;6.482;2023-05-10T09:11:42;5.68;;;3.22;;
57217;SDS011;43078;52.972;6.482;2023-05-10T09:14:08;5.63;;;3.17;;
57217;SDS011;43078;52.972;6.482;2023-05-10T09:17:01;7.32;;;4.13;;
57217;SDS011;43078;52.972;6.482;2023-05-10T09:19:33;9.10;;;4.13;;
57217;SDS011;43078;52.972;6.482;2023-05-10T09:22:25;7.75;;;4.53;;
57217;SDS011;43078;52.972;6.482;2023-05-10T09:30:40;7.85;;;4.13;;
57217;SDS011;43078;52.972;6.482;2023-05-10T09:33:54;7.30;;;4.20;;
57217;SDS011;43078;52.972;6.482;2023-05-10T09:36:23;7.45;;;5.20;;
57217;SDS011;43078;52.972;6.482;2023-05-10T09:38:52;7.63;;;4.03;;
57217;SDS011;43078;52.972;6.482;2023-05-10T09:41:21;5.90;;;3.63;;
57217;SDS011;43078;52.972;6.482;2023-05-10T09:43:48;6.95;;;4.13;;
57217;SDS011;43078;52.972;6.482;2023-05-10T09:49:54;8.02;;;4.63;;
57217;SDS011;43078;52.972;6.482;2023-05-10T09:52:55;5.93;;;4.03;;
57217;SDS011;43078;52.972;6.482;2023-05-10T09:58:01;6.88;;;4.45;;
57217;SDS011;43078;52.972;6.482;2023-05-10T10:00:35;6.82;;;4.47;;
57217;SDS011;43078;52.972;6.482;2023-05-10T10:03:03;5.95;;;4.10;;
57217;SDS011;43078;52.972;6.482;2023-05-10T10:05:44;6.30;;;4.28;;
57217;SDS011;43078;52.972;6.482;2023-05-10T10:08:11;7.15;;;4.70;;
57217;SDS011;43078;52.972;6.482;2023-05-10T10:14:37;8.43;;;4.68;;
57217;SDS011;43078;52.972;6.482;2023-05-10T10:17:06;7.40;;;4.22;;
57217;SDS011;43078;52.972;6.482;2023-05-10T10:19:33;7.15;;;4.40;;
57217;SDS011;43078;52.972;6.482;2023-05-10T10:22:02;7.82;;;4.95;;
57217;SDS011;43078;52.972;6.482;2023-05-10T10:24:50;7.10;;;4.32;;
57217;SDS011;43078;52.972;6.482;2023-05-10T10:30:02;6.22;;;4.72;;
57217;SDS011;43078;52.972;6.482;2023-05-10T10:35:41;7.60;;;4.65;;
57217;SDS011;43078;52.972;6.482;2023-05-10T10:38:12;8.48;;;4.70;;
57217;SDS011;43078;52.972;6.482;2023-05-10T10:41:01;7.13;;;4.15;;
57217;SDS011;43078;52.972;6.482;2023-05-10T10:52:42;6.45;;;4.70;;
57217;SDS011;43078;52.972;6.482;2023-05-10T10:55:20;6.70;;;4.82;;
57217;SDS011;43078;52.972;6.482;2023-05-10T10:57:54;6.60;;;4.50;;
57217;SDS011;43078;52.972;6.482;2023-05-10T11:00:42;7.00;;;4.30;;
57217;SDS011;43078;52.972;6.482;2023-05-10T11:03:14;7.45;;;4.22;;
57217;SDS011;43078;52.972;6.482;2023-05-10T11:10:48;7.40;;;4.53;;
57217;SDS011;43078;52.972;6.482;2023-05-10T11:16:14;8.43;;;5.15;;
57217;SDS011;43078;52.972;6.482;2023-05-10T11:18:40;7.38;;;5.00;;
57217;SDS011;43078;52.972;6.482;2023-05-10T11:21:19;6.65;;;4.70;;
57217;SDS011;43078;52.972;6.482;2023-05-10T11:26:14;6.60;;;4.90;;
57217;SDS011;43078;52.972;6.482;2023-05-10T11:28:47;6.72;;;4.72;;
57217;SDS011;43078;52.972;6.482;2023-05-10T11:31:17;7.53;;;5.03;;
57217;SDS011;43078;52.972;6.482;2023-05-10T11:33:44;9.25;;;4.63;;
57217;SDS011;43078;52.972;6.482;2023-05-10T11:36:20;7.03;;;4.75;;
57217;SDS011;43078;52.972;6.482;2023-05-10T11:38:48;7.00;;;5.05;;
57217;SDS011;43078;52.972;6.482;2023-05-10T11:41:15;9.35;;;5.88;;
57217;SDS011;43078;52.972;6.482;2023-05-10T11:43:42;6.95;;;4.30;;
57217;SDS011;43078;52.972;6.482;2023-05-10T11:46:11;6.07;;;4.50;;
57217;SDS011;43078;52.972;6.482;2023-05-10T11:48:38;5.90;;;4.25;;
57217;SDS011;43078;52.972;6.482;2023-05-10T11:51:05;8.15;;;5.03;;
57217;SDS011;43078;52.972;6.482;2023-05-10T11:53:35;6.50;;;4.85;;
57217;SDS011;43078;52.972;6.482;2023-05-10T11:56:04;8.10;;;5.68;;
57217;SDS011;43078;52.972;6.482;2023-05-10T11:58:32;7.53;;;5.47;;
57217;SDS011;43078;52.972;6.482;2023-05-10T12:00:58;8.32;;;5.53;;
57217;SDS011;43078;52.972;6.482;2023-05-10T12:03:25;7.03;;;4.82;;
57217;SDS011;43078;52.972;6.482;2023-05-10T12:05:51;7.70;;;5.32;;
57217;SDS011;43078;52.972;6.482;2023-05-10T12:08:20;7.13;;;5.15;;
57217;SDS011;43078;52.972;6.482;2023-05-10T12:10:50;7.90;;;4.78;;
57217;SDS011;43078;52.972;6.482;2023-05-10T12:13:17;7.00;;;4.70;;
57217;SDS011;43078;52.972;6.482;2023-05-10T12:15:44;9.63;;;5.60;;
57217;SDS011;43078;52.972;6.482;2023-05-10T12:18:10;7.22;;;4.80;;
57217;SDS011;43078;52.972;6.482;2023-05-10T12:20:36;7.25;;;4.55;;
57217;SDS011;43078;52.972;6.482;2023-05-10T12:23:02;7.25;;;4.85;;
57217;SDS011;43078;52.972;6.482;2023-05-10T12:25:32;6.40;;;4.50;;
57217;SDS011;43078;52.972;6.482;2023-05-10T12:27:59;7.63;;;4.80;;
57217;SDS011;43078;52.972;6.482;2023-05-10T12:30:29;7.10;;;4.40;;
57217;SDS011;43078;52.972;6.482;2023-05-10T12:33:02;7.93;;;5.10;;
57217;SDS011;43078;52.972;6.482;2023-05-10T12:39:38;8.98;;;5.60;;
57217;SDS011;43078;52.972;6.482;2023-05-10T12:45:44;10.73;;;6.88;;
57217;SDS011;43078;52.972;6.482;2023-05-10T12:48:23;8.05;;;5.57;;
57217;SDS011;43078;52.972;6.482;2023-05-10T12:50:48;10.63;;;6.32;;
57217;SDS011;43078;52.972;6.482;2023-05-10T12:56:36;10.77;;;6.75;;
57217;SDS011;43078;52.972;6.482;2023-05-10T12:59:02;9.82;;;6.18;;
57217;SDS011;43078;52.972;6.482;2023-05-10T13:01:28;11.05;;;7.43;;
57217;SDS011;43078;52.972;6.482;2023-05-10T13:03:57;12.85;;;7.47;;
57217;SDS011;43078;52.972;6.482;2023-05-10T13:06:25;12.40;;;5.65;;
57217;SDS011;43078;52.972;6.482;2023-05-10T13:08:50;10.15;;;7.03;;
57217;SDS011;43078;52.972;6.482;2023-05-10T13:14:13;9.90;;;7.10;;
57217;SDS011;43078;52.972;6.482;2023-05-10T13:20:47;9.10;;;6.18;;
57217;SDS011;43078;52.972;6.482;2023-05-10T13:23:17;9.35;;;6.55;;
57217;SDS011;43078;52.972;6.482;2023-05-10T13:26:00;9.23;;;6.60;;
57217;SDS011;43078;52.972;6.482;2023-05-10T13:31:23;11.82;;;6.60;;
57217;SDS011;43078;52.972;6.482;2023-05-10T13:33:52;10.40;;;6.95;;
57217;SDS011;43078;52.972;6.482;2023-05-10T13:36:27;10.98;;;6.57;;
57217;SDS011;43078;52.972;6.482;2023-05-10T13:41:44;10.25;;;6.72;;
57217;SDS011;43078;52.972;6.482;2023-05-10T13:44:22;10.25;;;7.05;;
57217;SDS011;43078;52.972;6.482;2023-05-10T13:46:55;11.52;;;7.25;;
57217;SDS011;43078;52.972;6.482;2023-05-10T13:49:22;9.90;;;7.03;;
57217;SDS011;43078;52.972;6.482;2023-05-10T13:52:02;10.13;;;6.80;;
57217;SDS011;43078;52.972;6.482;2023-05-10T13:54:32;9.55;;;7.22;;
57217;SDS011;43078;52.972;6.482;2023-05-10T13:56:59;9.63;;;6.50;;
57217;SDS011;43078;52.972;6.482;2023-05-10T13:59:25;10.90;;;7.55;;
57217;SDS011;43078;52.972;6.482;2023-05-10T14:01:53;11.00;;;7.93;;
57217;SDS011;43078;52.972;6.482;2023-05-10T15:06:02;8.60;;;5.30;;
57217;SDS011;43078;52.972;6.482;2023-05-10T15:21:05;7.82;;;4.90;;
57217;SDS011;43078;52.972;6.482;2023-05-10T15:28:05;9.65;;;5.32;;
57217;SDS011;43078;52.972;6.482;2023-05-10T15:30:31;9.68;;;5.47;;
57217;SDS011;43078;52.972;6.482;2023-05-10T15:32:57;7.20;;;4.97;;
57217;SDS011;43078;52.972;6.482;2023-05-10T15:35:35;8.45;;;5.78;;
57217;SDS011;43078;52.972;6.482;2023-05-10T15:38:05;8.48;;;5.53;;
57217;SDS011;43078;52.972;6.482;2023-05-10T15:40:32;8.38;;;5.50;;
57217;SDS011;43078;52.972;6.482;2023-05-10T15:42:58;7.70;;;5.30;;
57217;SDS011;43078;52.972;6.482;2023-05-10T15:45:24;10.68;;;4.82;;
57217;SDS011;43078;52.972;6.482;2023-05-10T15:47:50;7.53;;;4.82;;
57217;SDS011;43078;52.972;6.482;2023-05-10T15:50:16;7.15;;;5.20;;
57217;SDS011;43078;52.972;6.482;2023-05-10T15:52:42;7.93;;;5.50;;
57217;SDS011;43078;52.972;6.482;2023-05-10T15:55:15;7.45;;;5.32;;
57217;SDS011;43078;52.972;6.482;2023-05-10T15:57:42;8.45;;;5.95;;
57217;SDS011;43078;52.972;6.482;2023-05-10T16:00:09;11.27;;;5.80;;
57217;SDS011;43078;52.972;6.482;2023-05-10T16:02:41;8.23;;;6.20;;
57217;SDS011;43078;52.972;6.482;2023-05-10T16:05:07;7.90;;;5.95;;
57217;SDS011;43078;52.972;6.482;2023-05-10T16:07:44;9.35;;;5.95;;
57217;SDS011;43078;52.972;6.482;2023-05-10T16:10:13;8.38;;;5.78;;
57217;SDS011;43078;52.972;6.482;2023-05-10T16:12:38;7.90;;;6.20;;
57217;SDS011;43078;52.972;6.482;2023-05-10T16:15:04;9.88;;;6.60;;
57217;SDS011;43078;52.972;6.482;2023-05-10T16:17:33;10.90;;;7.28;;
57217;SDS011;43078;52.972;6.482;2023-05-10T16:19:59;8.65;;;5.93;;
57217;SDS011;43078;52.972;6.482;2023-05-10T16:22:28;9.75;;;6.35;;
57217;SDS011;43078;52.972;6.482;2023-05-10T16:24:55;8.40;;;6.22;;
57217;SDS011;43078;52.972;6.482;2023-05-10T16:27:23;8.38;;;6.15;;
57217;SDS011;43078;52.972;6.482;2023-05-10T16:29:48;9.05;;;5.82;;
57217;SDS011;43078;52.972;6.482;2023-05-10T16:32:19;8.23;;;5.65;;
57217;SDS011;43078;52.972;6.482;2023-05-10T16:35:03;8.20;;;5.90;;
57217;SDS011;43078;52.972;6.482;2023-05-10T16:37:28;9.68;;;6.55;;
57217;SDS011;43078;52.972;6.482;2023-05-10T16:40:07;9.25;;;6.22;;
57217;SDS011;43078;52.972;6.482;2023-05-10T16:42:35;9.02;;;6.75;;
57217;SDS011;43078;52.972;6.482;2023-05-10T16:45:01;9.38;;;6.20;;
57217;SDS011;43078;52.972;6.482;2023-05-10T16:47:35;9.80;;;6.28;;
57217;SDS011;43078;52.972;6.482;2023-05-10T16:50:02;10.50;;;6.00;;
57217;SDS011;43078;52.972;6.482;2023-05-10T16:52:30;8.18;;;5.75;;
57217;SDS011;43078;52.972;6.482;2023-05-10T16:54:57;8.65;;;6.20;;
57217;SDS011;43078;52.972;6.482;2023-05-10T16:57:23;8.50;;;5.68;;
57217;SDS011;43078;52.972;6.482;2023-05-10T16:59:49;7.65;;;5.80;;
57217;SDS011;43078;52.972;6.482;2023-05-10T17:02:21;10.23;;;7.13;;
57217;SDS011;43078;52.972;6.482;2023-05-10T17:04:47;8.95;;;5.60;;
57217;SDS011;43078;52.972;6.482;2023-05-10T17:07:13;9.05;;;5.55;;
57217;SDS011;43078;52.972;6.482;2023-05-10T17:09:42;8.25;;;5.65;;
57217;SDS011;43078;52.972;6.482;2023-05-10T17:12:08;7.97;;;5.55;;
57217;SDS011;43078;52.972;6.482;2023-05-10T17:14:34;7.32;;;5.47;;
57217;SDS011;43078;52.972;6.482;2023-05-10T17:17:30;9.75;;;5.10;;
57217;SDS011;43078;52.972;6.482;2023-05-10T17:19:56;7.78;;;5.13;;
57217;SDS011;43078;52.972;6.482;2023-05-10T17:22:40;12.48;;;5.85;;
57217;SDS011;43078;52.972;6.482;2023-05-10T17:25:06;9.35;;;5.93;;
57217;SDS011;43078;52.972;6.482;2023-05-10T17:27:32;9.10;;;6.20;;
57217;SDS011;43078;52.972;6.482;2023-05-10T17:29:58;11.75;;;6.15;;
57217;SDS011;43078;52.972;6.482;2023-05-10T17:32:29;8.88;;;5.78;;
57217;SDS011;43078;52.972;6.482;2023-05-10T17:34:55;9.90;;;5.75;;
57217;SDS011;43078;52.972;6.482;2023-05-10T17:37:21;8.60;;;5.35;;
57217;SDS011;43078;52.972;6.482;2023-05-10T17:39:47;7.55;;;5.47;;
57217;SDS011;43078;52.972;6.482;2023-05-10T17:42:13;10.00;;;5.00;;
57217;SDS011;43078;52.972;6.482;2023-05-10T17:44:41;9.65;;;5.82;;
57217;SDS011;43078;52.972;6.482;2023-05-10T17:47:07;9.00;;;5.65;;
57217;SDS011;43078;52.972;6.482;2023-05-10T17:49:33;10.05;;;5.45;;
57217;SDS011;43078;52.972;6.482;2023-05-10T17:51:58;10.68;;;7.38;;
57217;SDS011;43078;52.972;6.482;2023-05-10T17:54:24;11.70;;;7.90;;
57217;SDS011;43078;52.972;6.482;2023-05-10T17:56:50;8.73;;;6.38;;
57217;SDS011;43078;52.972;6.482;2023-05-10T17:59:15;9.40;;;5.30;;
57217;SDS011;43078;52.972;6.482;2023-05-10T18:01:41;8.20;;;5.00;;
57217;SDS011;43078;52.972;6.482;2023-05-10T18:04:06;11.23;;;5.72;;
57217;SDS011;43078;52.972;6.482;2023-05-10T18:06:35;8.65;;;5.07;;
57217;SDS011;43078;52.972;6.482;2023-05-10T18:09:02;12.00;;;5.72;;
57217;SDS011;43078;52.972;6.482;2023-05-10T18:11:29;7.55;;;5.05;;
57217;SDS011;43078;52.972;6.482;2023-05-10T18:13:54;10.68;;;5.35;;
57217;SDS011;43078;52.972;6.482;2023-05-10T18:16:20;9.07;;;5.13;;
57217;SDS011;43078;52.972;6.482;2023-05-10T18:18:46;8.60;;;5.13;;
57217;SDS011;43078;52.972;6.482;2023-05-10T18:21:11;10.57;;;5.47;;
57217;SDS011;43078;52.972;6.482;2023-05-10T18:23:40;9.35;;;5.13;;
57217;SDS011;43078;52.972;6.482;2023-05-10T18:26:06;8.80;;;5.43;;
57217;SDS011;43078;52.972;6.482;2023-05-10T18:28:32;6.80;;;5.20;;
57217;SDS011;43078;52.972;6.482;2023-05-10T18:30:58;9.40;;;5.10;;
57217;SDS011;43078;52.972;6.482;2023-05-10T18:33:23;8.40;;;6.13;;
57217;SDS011;43078;52.972;6.482;2023-05-10T18:35:49;8.23;;;6.03;;
57217;SDS011;43078;52.972;6.482;2023-05-10T18:38:15;9.57;;;5.57;;
57217;SDS011;43078;52.972;6.482;2023-05-10T18:40:41;9.18;;;5.40;;
57217;SDS011;43078;52.972;6.482;2023-05-10T18:43:06;9.07;;;5.68;;
57217;SDS011;43078;52.972;6.482;2023-05-10T18:45:32;8.32;;;5.95;;
57217;SDS011;43078;52.972;6.482;2023-05-10T18:47:58;7.82;;;5.75;;
57217;SDS011;43078;52.972;6.482;2023-05-10T18:50:24;9.05;;;5.47;;
57217;SDS011;43078;52.972;6.482;2023-05-10T18:52:50;7.80;;;5.45;;
57217;SDS011;43078;52.972;6.482;2023-05-10T18:55:16;6.88;;;5.53;;
57217;SDS011;43078;52.972;6.482;2023-05-10T18:57:41;8.25;;;5.70;;
57217;SDS011;43078;52.972;6.482;2023-05-10T19:00:08;8.77;;;5.47;;
57217;SDS011;43078;52.972;6.482;2023-05-10T19:02:36;8.20;;;6.15;;
57217;SDS011;43078;52.972;6.482;2023-05-10T19:05:03;8.95;;;6.07;;
57217;SDS011;43078;52.972;6.482;2023-05-10T19:07:30;8.50;;;6.38;;
57217;SDS011;43078;52.972;6.482;2023-05-10T19:09:59;7.75;;;5.40;;
57217;SDS011;43078;52.972;6.482;2023-05-10T19:12:24;9.02;;;5.63;;
57217;SDS011;43078;52.972;6.482;2023-05-10T19:14:51;8.25;;;5.60;;
57217;SDS011;43078;52.972;6.482;2023-05-10T19:17:16;10.68;;;5.93;;
57217;SDS011;43078;52.972;6.482;2023-05-10T19:19:42;9.05;;;5.70;;
57217;SDS011;43078;52.972;6.482;2023-05-10T19:22:08;7.20;;;5.40;;
57217;SDS011;43078;52.972;6.482;2023-05-10T19:24:33;10.02;;;5.47;;
57217;SDS011;43078;52.972;6.482;2023-05-10T19:26:59;9.52;;;6.03;;
57217;SDS011;43078;52.972;6.482;2023-05-10T19:29:25;9.35;;;5.82;;
57217;SDS011;43078;52.972;6.482;2023-05-10T19:31:51;8.40;;;5.68;;
57217;SDS011;43078;52.972;6.482;2023-05-10T19:34:17;9.98;;;5.75;;
57217;SDS011;43078;52.972;6.482;2023-05-10T19:36:43;9.70;;;5.80;;
57217;SDS011;43078;52.972;6.482;2023-05-10T19:39:10;9.50;;;5.80;;
57217;SDS011;43078;52.972;6.482;2023-05-10T19:41:36;14.70;;;6.20;;
57217;SDS011;43078;52.972;6.482;2023-05-10T19:44:01;12.55;;;6.35;;
57217;SDS011;43078;52.972;6.482;2023-05-10T19:46:27;14.73;;;6.75;;
57217;SDS011;43078;52.972;6.482;2023-05-10T19:48:53;11.52;;;5.90;;
57217;SDS011;43078;52.972;6.482;2023-05-10T19:51:19;9.13;;;5.47;;
57217;SDS011;43078;52.972;6.482;2023-05-10T19:53:44;16.77;;;5.78;;
57217;SDS011;43078;52.972;6.482;2023-05-10T19:56:10;9.70;;;6.13;;